Sao Sebastiao do Paraiso, Brazil
Current Conditions -  °F | °C
As of 12:00 PM on Tuesday 21 Oct 2014 (Local Time) from SBRP Reporting Station
Few Clouds Few Clouds  
Wind Chill: 84°   Ceiling: Unl
Heat Index: 84°   Visibility: 6mi
Dew Point: 61°   Wind: 10mph
Humidity: 45%   Direction: 150°SSE
Pressure: 30.03"   Gusts: NA
Location:  20.92°S, 46.99°W
Report Text: SBRP 211400Z 15009KT 9999 FEW035 29/16 Q1017
Loading
Personal Weather Stations






























Interactive Weather Map
Tropical Storm Tracking
New forecast layout! Learn more

10-Day Weather Forecast

Advertisements
Track Severe Weather on mobile